Domov               UVHVVR             MKGP            O straneh              
ZDRAVSTVENO VARSTVO RASTLIN
  MREŽA AGROMET. POSTAJ
 ► PROGNOSTIČNA OBVESTILA
AGROMETEOROLOŠKI PODATKI -
ARSO
OBVLADOVANJE TVEGANJ ZARADI
NEUGODNIH VREMENSKIH RAZMER
  ► NARAVNE NESREČE
  ► SUŠA/MOČA
  ► NAMAKANJE
  ► ŽLED (gozdarstvo)
KARTOGRAFSKI PRIKAZI
SPLETNE POVEZAVE
PROJEKTI IN PUBLIKACIJE

AGROMETEOROLOŠKA MREŽA: VREMENSKE POSTAJE IN FENOLOŠKA OPAZOVANJA

Pregled podatkov za lokacijo Purisima, meteorološka postaja 863702

Pregled senzorjev na lokaciji

ID Ime Zadnja
vrednost
Datum
zadnje
spremembe
Tip
senzorja
4192 Omočenost lista (U) 0 U 25.2.2018 15:30 A730WET
4193 Padavine (mm) 0 mm 25.2.2018 15:30 Rain-O-Matic
4191 Relativna vlaga 2 m (% RH) 43,92 % RH 25.2.2018 15:30 50YA
4214 Temperatura tal 5 cm (°C) 0,02 °C 25.2.2018 15:30 Generic -20 - +40 °C
4190 Temperatura 2 m (°C) -2,13 °C 25.2.2018 15:30 50YA

Pregled podatkov zadnjih 24 ur

Zap.
št.
Datum in čas Purisima
Omočenost
lista
Padavine Relativna
vlaga
2
m
Temperatura
tal
5
cm
Temperatura
2
m
1 25.2.2018 16:00
2 25.2.2018 15:30 0 0 43,8 0 -2
3 25.2.2018 15:00 0 0 43,6 0,1 -1,5
4 25.2.2018 14:30 0 0 43,5 0,1 -1,5
5 25.2.2018 14:00 0 0 42,8 0,1 -1,3
6 25.2.2018 13:30 0 0 42,2 0 -1,1
7 25.2.2018 13:00 0 0 41 -0,2 -0,6
8 25.2.2018 12:30 0 0 39,8 -0,3 -0,2
9 25.2.2018 12:00 0 0 40,2 -0,6 -0,7
10 25.2.2018 11:30 0 0 41 -0,8 -1,1
11 25.2.2018 11:00 0 0 40 -0,9 -1,2
12 25.2.2018 10:30 0 0 39 -0,9 -1,4
13 25.2.2018 10:00 0 0 38,7 -1 -1,8
14 25.2.2018 09:30 0 0 40,1 -1,2 -2,3
15 25.2.2018 09:00 0 0 41,8 -1,4 -3
16 25.2.2018 08:30 0 0 42 -1,4 -3
17 25.2.2018 08:00 0 0 42,5 -1,4 -3,2
18 25.2.2018 07:30 0 0 41,5 -1,4 -3,2
19 25.2.2018 07:00 0 0 40,7 -1,3 -3,2
20 25.2.2018 06:30 0 0 41,5 -1,3 -3,1
21 25.2.2018 06:00 0 0 40,1 -1,2 -2,7
22 25.2.2018 05:30 0 0 37,8 -1,1 -2,4
23 25.2.2018 05:00 0 0 37,9 -1 -2,2
24 25.2.2018 04:30 0 0 37,8 -1 -2
25 25.2.2018 04:00 0 0 38,6 -0,9 -1,6
26 25.2.2018 03:30 0 0 40 -0,9 -1,7
27 25.2.2018 03:00 0 0 41 -0,9 -1,7
28 25.2.2018 02:30 0 0 42,7 -0,8 -1,6
29 25.2.2018 02:00 0 0 44,9 -0,6 -1,4
30 25.2.2018 01:30 0 0 47,3 -0,5 -1,3
31 25.2.2018 01:00 0 0 49,8 -0,4 -1,2
32 25.2.2018 00:30 0 0 50,1 -0,6 -0,8
33 25.2.2018 00:00 0 0 49,3 -0,5 -0,4
34 24.2.2018 23:30 0 0 47,8 0,2 0
35 24.2.2018 23:00 0 0 47,9 0,1 0,1
36 24.2.2018 22:30 0 0 47,8 0,4 0,4
37 24.2.2018 22:00 0 0 46,6 0,2 0,6
38 24.2.2018 21:30 0 0 43,8 0 0,9
39 24.2.2018 21:00 0 0 40,5 0,2 1,3
40 24.2.2018 20:30 0 0 38,6 0,3 1,6
41 24.2.2018 20:00 0 0 35,8 0,4 2
42 24.2.2018 19:30 0 0 32,4 0,6 2,4
43 24.2.2018 19:00 0 0 29,9 0,7 3
44 24.2.2018 18:30 0 0 27,5 0,9 3,6
45 24.2.2018 18:00 0 0 27,9 1 3,7
46 24.2.2018 17:30 0 0 30,2 1 3,8
47 24.2.2018 17:00 0 0 35,1 1,2 4,4
48 24.2.2018 16:30 0 0 37,4 1,5 5
© 2011 Ministrstvo za kmetijstvo, gozdarstvo in prehrano. Vse pravice pridržane.